Strona główna
METAR-TAF:

METAR-TAF

Lotnisko :

Joliet Regional Airport

Joliet, Illinois, Stany Zjednoczone

Szerokość geograficzna: 41-31-05N, Długość geograficzna: 088-10-31W, wysokość: 177 m

Aktualna obserwacja pogody

Raport powstał 20 minut temu, godzina 08:15 UTC
Wiatr 4 kt od południe
Temperatura 21°C
Wilgotność 94%
Ciśnienie 1012 hPa
Widzialność: 16.1 km
Rozproszone chmury na wysokości 1600 ft
Zachmurzenie całkowite na wysokości 2900 ft

METAR: KJOT 280815Z AUTO 17004KT 10SM SCT016 OVC029 21/20 A2988 RMK AO2 T02140195

czas: 03:35 (08:35 UTC)


TAF: brakujący

Obserwacja i prognoza pogody dla ponad 4000 lotnisk (raport METAR i TAF).

Dostępne stacje oznaczono żółtymi i czerwonymi punktami na mapie.

Najedź kursorem aby zobaczyć nazwę stacji.

Kliknij aby zobaczyć obserwacje i prognozy pogody.

Aby zmienić mapę: kliknij na zielony przycisk z czarnym krzyżykiem, aby powiększyć; na zielony przycisk z myślnikiem, aby pomniejszyć; na zielone strzałki, aby przejść do map sąsiednich.


METAR-TAF: